Terminal Aerodrome Forecast
Issued by NWS Blacksburg, VA

Home | Current Version | Previous Version | Text Only | Print | Product List | Glossary On
Versions: 1 2 3 4 5 6 7 8 9 10 11 12 13 14 15 16 17 18 19 20 21 22 23 24 25 26
000
FTUS41 KRNK 250858 AAC
TAFLYH
TAF AMD
KLYH 250858Z 2509/2606 14004KT P6SM FEW006 BKN100
     FM251200 23004KT 5SM BR BKN080
     FM251400 24005KT P6SM BKN060
     FM251900 22009KT P6SM VCSH BKN060
     FM260000 24008KT P6SM BKN050=

USA.gov is the U.S. government's official web portal to all federal, state and local government web resources and services.